createdAt,value
2018-07-15T00:00:52.981Z,94.69
2018-07-15T00:01:52.982Z,94.78
2018-07-15T00:02:52.986Z,95.36
2018-07-15T00:03:52.984Z,95.36
2018-07-15T00:04:52.988Z,95.36
2018-07-15T00:05:52.990Z,95.55
2018-07-15T00:06:52.991Z,96.27
2018-07-15T00:07:52.990Z,95.45
2018-07-15T00:08:52.991Z,96.18
2018-07-15T00:09:52.993Z,96.18
2018-07-15T00:10:52.994Z,96.13
2018-07-15T00:11:52.995Z,96.27
2018-07-15T00:12:52.997Z,96.08
2018-07-15T00:13:52.999Z,97.04
2018-07-15T00:14:53.002Z,96.51
2018-07-15T00:15:53.001Z,96.22
2018-07-15T00:16:53.004Z,95.31
2018-07-15T00:17:53.006Z,95.55
2018-07-15T00:18:53.007Z,95.45
2018-07-15T00:19:53.007Z,95.98
2018-07-15T00:20:53.017Z,96.22
2018-07-15T00:21:53.012Z,96.13
2018-07-15T00:22:53.012Z,96.27
2018-07-15T00:23:53.014Z,96.27
2018-07-15T00:24:53.016Z,96.56
2018-07-15T00:25:53.017Z,96.66
2018-07-15T00:26:53.019Z,97.04
2018-07-15T00:27:53.019Z,96.85
2018-07-15T00:28:53.019Z,97.04
2018-07-15T00:29:53.021Z,97.24
2018-07-15T00:30:53.023Z,97.14
2018-07-15T00:31:53.027Z,96.94
2018-07-15T00:32:53.024Z,97.61
2018-07-15T00:33:53.026Z,97.81
2018-07-15T00:34:53.029Z,97.81
2018-07-15T00:35:53.029Z,97.61
2018-07-15T00:36:53.030Z,97.24
2018-07-15T00:37:53.032Z,96.85
2018-07-15T00:38:53.033Z,96.66
2018-07-15T00:39:53.033Z,95.98
2018-07-15T00:40:53.035Z,96.08
2018-07-15T00:41:53.038Z,96.37
2018-07-15T00:42:53.040Z,96.18
2018-07-15T00:43:53.040Z,96.66
2018-07-15T00:44:53.042Z,96.56
2018-07-15T00:45:53.042Z,96.85
2018-07-15T00:46:53.046Z,96.66
2018-07-15T00:47:53.045Z,97.04
2018-07-15T00:48:53.047Z,96.66
2018-07-15T00:49:53.048Z,96.75
2018-07-15T00:50:53.049Z,97.04
2018-07-15T00:51:53.051Z,97.14
2018-07-15T00:52:53.053Z,97.04
2018-07-15T00:53:53.053Z,96.85
2018-07-15T00:54:53.055Z,97.14
2018-07-15T00:55:53.058Z,97.71
2018-07-15T00:56:53.058Z,97.47
2018-07-15T00:57:53.060Z,97.42
2018-07-15T00:58:53.060Z,98.38
2018-07-15T00:59:53.061Z,97.81
2018-07-15T01:00:53.062Z,97.52
2018-07-15T01:01:53.067Z,97.71
2018-07-15T01:02:53.065Z,97.61
2018-07-15T01:03:53.066Z,98.00
2018-07-15T01:04:53.067Z,97.61
2018-07-15T01:05:53.069Z,97.52
2018-07-15T01:06:53.070Z,97.61
2018-07-15T01:07:53.070Z,97.42
2018-07-15T01:08:53.072Z,97.04
2018-07-15T01:09:53.074Z,96.85
2018-07-15T01:10:53.075Z,97.14
2018-07-15T01:11:53.075Z,97.33
2018-07-15T01:12:53.077Z,97.24
2018-07-15T01:13:53.078Z,97.14
2018-07-15T01:14:53.080Z,96.66
2018-07-15T01:15:53.080Z,97.14
2018-07-15T01:16:53.081Z,97.14
2018-07-15T01:17:53.083Z,96.94
2018-07-15T01:18:53.084Z,97.14
2018-07-15T01:19:53.084Z,96.85
2018-07-15T01:20:53.086Z,97.04
2018-07-15T01:21:53.090Z,97.71
2018-07-15T01:22:53.090Z,96.70
2018-07-15T01:23:53.090Z,97.04
2018-07-15T01:24:53.092Z,97.24
2018-07-15T01:25:53.093Z,97.14
2018-07-15T01:26:53.095Z,97.33
2018-07-15T01:27:53.094Z,97.52
2018-07-15T01:28:53.096Z,97.76
2018-07-15T01:29:53.097Z,97.38
2018-07-15T01:30:53.100Z,97.56
2018-07-15T01:31:53.100Z,97.56
2018-07-15T01:32:53.101Z,97.76
2018-07-15T01:33:53.104Z,98.05
2018-07-15T01:34:53.104Z,98.33
2018-07-15T01:35:53.104Z,98.05
2018-07-15T01:36:53.105Z,98.33
2018-07-15T01:37:53.107Z,98.24
2018-07-15T01:38:53.109Z,98.24
2018-07-15T01:39:53.108Z,97.47
2018-07-15T01:40:53.110Z,97.86
2018-07-15T01:41:53.116Z,97.66
2018-07-15T01:42:53.113Z,97.56
2018-07-15T01:43:53.115Z,97.04
2018-07-15T01:44:53.115Z,96.85
2018-07-15T01:45:53.115Z,96.66
2018-07-15T01:46:53.118Z,97.24
2018-07-15T01:47:53.118Z,97.04
2018-07-15T01:48:53.118Z,96.94
2018-07-15T01:49:53.120Z,96.75
2018-07-15T01:50:53.122Z,96.18
2018-07-15T01:51:53.122Z,96.47
2018-07-15T01:52:53.123Z,95.79
2018-07-15T01:53:53.125Z,96.08
2018-07-15T01:54:53.126Z,95.79
2018-07-15T01:55:53.127Z,96.27
2018-07-15T01:56:53.130Z,96.94
2018-07-15T01:57:53.128Z,97.04
2018-07-15T01:58:53.132Z,97.04
2018-07-15T01:59:53.131Z,97.24
2018-07-15T02:00:53.133Z,97.71
2018-07-15T02:01:53.134Z,97.24
2018-07-15T02:02:53.135Z,97.71
2018-07-15T02:03:53.135Z,97.66
2018-07-15T02:04:53.138Z,97.56
2018-07-15T02:05:53.138Z,97.47
2018-07-15T02:06:53.142Z,98.24
2018-07-15T02:07:53.140Z,98.43
2018-07-15T02:08:53.142Z,98.24
2018-07-15T02:09:53.141Z,99.10
2018-07-15T02:10:53.143Z,99.01
2018-07-15T02:11:53.144Z,99.10
2018-07-15T02:12:53.146Z,99.20
2018-07-15T02:13:53.147Z,99.39
2018-07-15T02:14:53.147Z,99.39
2018-07-15T02:15:53.148Z,99.29
2018-07-15T02:16:53.149Z,99.39
2018-07-15T02:17:53.151Z,99.39
2018-07-15T02:18:53.153Z,98.91
2018-07-15T02:19:53.153Z,99.29
2018-07-15T02:20:53.154Z,99.20
2018-07-15T02:21:53.156Z,99.20
2018-07-15T02:22:53.156Z,98.91
2018-07-15T02:23:53.157Z,99.10
2018-07-15T02:24:53.160Z,98.53
2018-07-15T02:25:53.161Z,99.01
2018-07-15T02:26:53.168Z,99.39
2018-07-15T02:27:53.161Z,99.29
2018-07-15T02:28:53.163Z,99.01
2018-07-15T02:29:53.163Z,99.39
2018-07-15T02:30:53.165Z,99.01
2018-07-15T02:31:53.165Z,98.43
2018-07-15T02:32:53.173Z,98.82
2018-07-15T02:33:53.169Z,99.01
2018-07-15T02:34:53.168Z,98.82
2018-07-15T02:35:53.169Z,99.20
2018-07-15T02:36:53.254Z,99.01
2018-07-15T02:37:53.172Z,99.01
2018-07-15T02:38:53.174Z,99.39
2018-07-15T02:39:53.174Z,99.99
2018-07-15T02:40:53.175Z,99.99
2018-07-15T02:41:53.177Z,99.99
2018-07-15T02:42:53.178Z,99.99
2018-07-15T02:43:53.178Z,99.99
2018-07-15T02:44:53.179Z,99.87
2018-07-15T02:45:53.180Z,99.99
2018-07-15T02:46:53.185Z,99.87
2018-07-15T02:47:53.181Z,99.01
2018-07-15T02:48:53.183Z,99.20
2018-07-15T02:49:53.183Z,99.29
2018-07-15T02:50:53.185Z,98.43
2018-07-15T02:51:53.186Z,98.62
2018-07-15T02:52:53.185Z,98.33
2018-07-15T02:53:53.189Z,98.43
2018-07-15T02:54:53.187Z,98.82
2018-07-15T02:55:53.189Z,98.43
2018-07-15T02:56:53.190Z,98.43
2018-07-15T02:57:53.189Z,98.82
2018-07-15T02:58:53.190Z,99.20
2018-07-15T02:59:53.191Z,99.29
2018-07-15T03:00:53.195Z,99.58
2018-07-15T03:01:53.194Z,99.49
2018-07-15T03:02:53.195Z,99.58
2018-07-15T03:03:53.194Z,98.43
2018-07-15T03:04:53.196Z,99.34
2018-07-15T03:05:53.196Z,99.99
2018-07-15T03:06:53.197Z,99.99
2018-07-15T03:07:53.197Z,99.99
2018-07-15T03:08:53.198Z,99.99
2018-07-15T03:09:53.198Z,99.99
2018-07-15T03:10:53.200Z,99.99
2018-07-15T03:11:53.200Z,99.99
2018-07-15T03:12:53.201Z,99.99
2018-07-15T03:13:53.201Z,99.99
2018-07-15T03:14:53.202Z,99.99
2018-07-15T03:15:53.203Z,99.99
2018-07-15T03:16:53.202Z,99.99
2018-07-15T03:17:53.206Z,99.99
2018-07-15T03:18:53.205Z,99.99
2018-07-15T03:19:53.205Z,99.99
2018-07-15T03:20:53.205Z,99.99
2018-07-15T03:21:53.205Z,99.99
2018-07-15T03:22:53.208Z,99.99
2018-07-15T03:23:53.206Z,99.99
2018-07-15T03:24:53.208Z,99.99
2018-07-15T03:25:53.207Z,99.99
2018-07-15T03:26:53.208Z,99.99
2018-07-15T03:27:53.208Z,99.99
2018-07-15T03:28:53.210Z,99.99
2018-07-15T03:29:53.209Z,99.99
2018-07-15T03:30:53.210Z,99.99
2018-07-15T03:31:53.209Z,99.99
2018-07-15T03:32:53.211Z,99.99
2018-07-15T03:33:53.211Z,99.99
2018-07-15T03:34:53.212Z,99.99
2018-07-15T03:35:53.212Z,99.99
2018-07-15T03:36:53.217Z,99.99
2018-07-15T03:37:53.213Z,99.99
2018-07-15T03:38:53.213Z,99.99
2018-07-15T03:39:53.233Z,99.99
2018-07-15T03:40:53.215Z,99.99
2018-07-15T03:41:53.216Z,99.99
2018-07-15T03:42:53.216Z,99.99
2018-07-15T03:43:53.215Z,99.99
2018-07-15T03:44:53.216Z,99.99
2018-07-15T03:45:53.218Z,99.99
2018-07-15T03:46:53.217Z,99.99
2018-07-15T03:47:53.217Z,99.99
2018-07-15T03:48:53.218Z,99.99
2018-07-15T03:49:53.218Z,99.99
2018-07-15T03:50:53.218Z,99.99
2018-07-15T03:51:53.220Z,99.99
2018-07-15T03:52:53.221Z,99.99
2018-07-15T03:53:53.220Z,99.99
2018-07-15T03:54:53.220Z,99.99
2018-07-15T03:55:53.220Z,99.99
2018-07-15T03:56:53.221Z,99.99
2018-07-15T03:57:53.223Z,99.99
2018-07-15T03:58:53.222Z,99.99
2018-07-15T03:59:53.221Z,99.99
2018-07-15T04:00:53.249Z,99.99
2018-07-15T04:01:53.224Z,99.99
2018-07-15T04:02:53.224Z,99.99
2018-07-15T04:03:53.223Z,99.99
2018-07-15T04:04:53.224Z,99.99
2018-07-15T04:05:53.224Z,99.99
2018-07-15T04:06:53.227Z,99.99
2018-07-15T04:07:53.226Z,98.86
2018-07-15T04:08:53.300Z,98.96
2018-07-15T04:09:53.226Z,99.05
2018-07-15T04:10:53.227Z,99.15
2018-07-15T04:11:53.228Z,99.24
2018-07-15T04:12:53.227Z,98.96
2018-07-15T04:13:53.228Z,99.05
2018-07-15T04:14:53.229Z,99.15
2018-07-15T04:15:53.228Z,98.38
2018-07-15T04:16:53.230Z,99.05
2018-07-15T04:17:53.230Z,98.57
2018-07-15T04:18:53.236Z,98.48
2018-07-15T04:19:53.231Z,98.67
2018-07-15T04:20:53.231Z,98.96
2018-07-15T04:21:53.232Z,98.48
2018-07-15T04:22:53.234Z,99.15
2018-07-15T04:23:53.233Z,97.90
2018-07-15T04:24:53.234Z,98.00
2018-07-15T04:25:53.235Z,98.48
2018-07-15T04:26:53.235Z,98.57
2018-07-15T04:27:53.235Z,97.71
2018-07-15T04:28:53.236Z,97.90
2018-07-15T04:29:53.238Z,98.28
2018-07-15T04:30:53.237Z,98.77
2018-07-15T04:31:53.238Z,98.10
2018-07-15T04:32:53.238Z,97.71
2018-07-15T04:33:53.239Z,97.90
2018-07-15T04:34:53.240Z,97.90
2018-07-15T04:35:53.239Z,98.19
2018-07-15T04:36:53.240Z,98.86
2018-07-15T04:37:53.271Z,98.00
2018-07-15T04:38:53.241Z,96.85
2018-07-15T04:39:53.249Z,96.47
2018-07-15T04:40:53.243Z,97.23
2018-07-15T04:41:53.243Z,97.61
2018-07-15T04:42:53.244Z,97.33
2018-07-15T04:43:53.274Z,96.85
2018-07-15T04:44:53.244Z,95.98
2018-07-15T04:45:53.246Z,96.37
2018-07-15T04:46:53.246Z,96.47
2018-07-15T04:47:53.246Z,95.31
2018-07-15T04:48:53.246Z,95.07
2018-07-15T04:49:53.247Z,95.46
2018-07-15T04:50:53.250Z,96.32
2018-07-15T04:51:53.249Z,97.38
2018-07-15T04:52:53.247Z,97.81
2018-07-15T04:53:53.249Z,97.71
2018-07-15T04:54:53.250Z,97.81
2018-07-15T04:55:53.250Z,96.99
2018-07-15T04:56:53.250Z,97.61
2018-07-15T04:57:53.255Z,98.38
2018-07-15T04:58:53.252Z,97.52
2018-07-15T04:59:53.252Z,96.37
2018-07-15T05:00:53.253Z,96.61
2018-07-15T05:01:53.259Z,98.24
2018-07-15T05:02:53.255Z,97.47
2018-07-15T05:03:53.255Z,97.86
2018-07-15T05:04:53.255Z,97.33
2018-07-15T05:05:53.257Z,97.04
2018-07-15T05:06:53.257Z,97.38
2018-07-15T05:07:53.258Z,95.89
2018-07-15T05:08:53.257Z,96.22
2018-07-15T05:09:53.260Z,95.55
2018-07-15T05:10:53.261Z,95.55
2018-07-15T05:11:53.261Z,95.46
2018-07-15T05:12:53.264Z,95.46
2018-07-15T05:13:53.262Z,95.26
2018-07-15T05:14:53.262Z,94.88
2018-07-15T05:15:53.262Z,95.17
2018-07-15T05:16:53.263Z,95.75
2018-07-15T05:17:53.265Z,95.46
2018-07-15T05:18:53.265Z,96.32
2018-07-15T05:19:53.266Z,95.55
2018-07-15T05:20:53.266Z,95.75
2018-07-15T05:21:53.267Z,95.65
2018-07-15T05:22:53.269Z,95.75
2018-07-15T05:23:53.269Z,95.36
2018-07-15T05:24:53.288Z,95.55
2018-07-15T05:25:53.272Z,96.03
2018-07-15T05:26:53.272Z,95.65
2018-07-15T05:27:53.272Z,95.75
2018-07-15T05:28:53.273Z,95.26
2018-07-15T05:29:53.278Z,95.55
2018-07-15T05:30:53.275Z,96.13
2018-07-15T05:31:53.277Z,96.22
2018-07-15T05:32:53.278Z,95.46
2018-07-15T05:33:53.281Z,95.31
2018-07-15T05:34:53.336Z,94.83
2018-07-15T05:35:53.281Z,95.31
2018-07-15T05:36:53.282Z,96.37
2018-07-15T05:37:53.283Z,95.89
2018-07-15T05:38:53.283Z,95.41
2018-07-15T05:39:53.284Z,95.60
2018-07-15T05:40:53.284Z,97.14
2018-07-15T05:41:53.286Z,95.21
2018-07-15T05:42:53.287Z,95.21
2018-07-15T05:43:53.286Z,95.50
2018-07-15T05:44:53.289Z,95.89
2018-07-15T05:45:53.291Z,95.60
2018-07-15T05:46:53.292Z,95.50
2018-07-15T05:47:53.292Z,94.74
2018-07-15T05:48:53.294Z,94.35
2018-07-15T05:49:53.295Z,95.21
2018-07-15T05:50:53.296Z,94.93
2018-07-15T05:51:53.310Z,94.35
2018-07-15T05:52:53.298Z,94.35
2018-07-15T05:53:53.304Z,94.16
2018-07-15T05:54:53.301Z,94.93
2018-07-15T05:55:53.302Z,94.93
2018-07-15T05:56:53.303Z,95.50
2018-07-15T05:57:53.331Z,95.31
2018-07-15T05:58:53.305Z,94.88
2018-07-15T05:59:53.306Z,94.69
2018-07-15T06:00:53.308Z,94.78
2018-07-15T06:01:53.309Z,95.36
2018-07-15T06:02:53.311Z,94.69
2018-07-15T06:03:53.311Z,94.69
2018-07-15T06:04:53.313Z,93.54
2018-07-15T06:05:53.314Z,93.82
2018-07-15T06:06:53.316Z,93.82
2018-07-15T06:07:53.321Z,93.25
2018-07-15T06:08:53.319Z,92.91
2018-07-15T06:09:53.320Z,91.66
2018-07-15T06:10:53.322Z,91.28
2018-07-15T06:11:53.323Z,91.56
2018-07-15T06:12:53.326Z,91.95
2018-07-15T06:13:53.327Z,91.28
2018-07-15T06:14:53.334Z,91.47
2018-07-15T06:15:53.331Z,90.65
2018-07-15T06:16:53.332Z,90.45
2018-07-15T06:17:53.334Z,89.88
2018-07-15T06:18:53.336Z,90.17
2018-07-15T06:19:53.336Z,89.69
2018-07-15T06:20:53.346Z,89.98
2018-07-15T06:21:53.341Z,89.40
2018-07-15T06:22:53.344Z,88.73
2018-07-15T06:23:53.345Z,88.06
2018-07-15T06:24:53.346Z,87.38
2018-07-15T06:25:53.350Z,86.36
2018-07-15T06:26:53.351Z,86.27
2018-07-15T06:27:53.353Z,86.75
2018-07-15T06:28:53.361Z,87.81
2018-07-15T06:29:53.357Z,86.94
2018-07-15T06:30:53.360Z,85.98
2018-07-15T06:31:53.380Z,84.97
2018-07-15T06:32:53.364Z,87.08
2018-07-15T06:33:53.366Z,85.64
2018-07-15T06:34:53.369Z,84.83
2018-07-15T06:35:53.371Z,85.64
2018-07-15T06:36:53.373Z,85.16
2018-07-15T06:37:53.377Z,84.29
2018-07-15T06:38:53.380Z,84.00
2018-07-15T06:39:53.381Z,84.97
2018-07-15T06:40:53.384Z,83.42
2018-07-15T06:41:53.388Z,83.04
2018-07-15T06:42:53.395Z,82.46
2018-07-15T06:43:53.391Z,82.41
2018-07-15T06:44:53.395Z,81.35
2018-07-15T06:45:53.398Z,81.63
2018-07-15T06:46:53.401Z,81.16
2018-07-15T06:47:53.404Z,81.83
2018-07-15T06:48:53.406Z,81.83
2018-07-15T06:49:53.409Z,81.83
2018-07-15T06:50:53.412Z,80.38
2018-07-15T06:51:53.414Z,82.41
2018-07-15T06:52:53.417Z,81.83
2018-07-15T06:53:53.457Z,81.73
2018-07-15T06:54:53.424Z,82.26
2018-07-15T06:55:53.449Z,82.64
2018-07-15T06:56:53.429Z,83.41
2018-07-15T06:57:53.434Z,81.87
2018-07-15T06:58:53.438Z,81.87
2018-07-15T06:59:53.439Z,81.48
2018-07-15T07:00:53.444Z,81.01
2018-07-15T07:01:53.447Z,83.26
2018-07-15T07:02:53.454Z,80.56
2018-07-15T07:03:53.452Z,79.98
2018-07-15T07:04:53.456Z,80.14
2018-07-15T07:05:53.463Z,80.71
2018-07-15T07:06:53.464Z,81.20
2018-07-15T07:07:53.466Z,82.45
2018-07-15T07:08:53.470Z,81.77
2018-07-15T07:09:53.475Z,81.58
2018-07-15T07:10:53.477Z,81.29
2018-07-15T07:11:53.481Z,82.93
2018-07-15T07:12:53.483Z,81.73
2018-07-15T07:13:53.488Z,81.16
2018-07-15T07:14:53.491Z,80.87
2018-07-15T07:15:53.495Z,82.50
2018-07-15T07:16:53.498Z,82.79
2018-07-15T07:17:53.502Z,82.31
2018-07-15T07:18:53.507Z,82.98
2018-07-15T07:19:53.510Z,83.85
2018-07-15T07:20:53.512Z,84.23
2018-07-15T07:21:53.515Z,84.14
2018-07-15T07:22:53.517Z,84.05
2018-07-15T07:23:53.520Z,83.95
2018-07-15T07:24:53.523Z,84.72
2018-07-15T07:25:53.526Z,83.23
2018-07-15T07:26:53.529Z,84.23
2018-07-15T07:27:53.532Z,84.14
2018-07-15T07:28:53.570Z,83.81
2018-07-15T07:29:53.539Z,83.75
2018-07-15T07:30:53.541Z,85.06
2018-07-15T07:31:53.546Z,85.35
2018-07-15T07:32:53.547Z,84.39
2018-07-15T07:33:53.551Z,85.06
2018-07-15T07:34:53.554Z,84.77
2018-07-15T07:35:53.557Z,85.54
2018-07-15T07:36:53.559Z,86.02
2018-07-15T07:37:53.564Z,86.79
2018-07-15T07:38:53.565Z,86.12
2018-07-15T07:39:53.567Z,87.27
2018-07-15T07:40:53.571Z,85.68
2018-07-15T07:41:53.574Z,86.26
2018-07-15T07:42:53.578Z,85.58
2018-07-15T07:43:53.580Z,85.00
2018-07-15T07:44:53.584Z,84.53
2018-07-15T07:45:53.587Z,84.14
2018-07-15T07:46:53.613Z,84.81
2018-07-15T07:47:53.593Z,85.05
2018-07-15T07:48:53.597Z,84.86
2018-07-15T07:49:53.604Z,85.43
2018-07-15T07:50:53.605Z,84.28
2018-07-15T07:51:53.810Z,84.56
2018-07-15T07:52:53.616Z,84.56
2018-07-15T07:53:53.617Z,84.76
2018-07-15T07:54:53.620Z,84.95
2018-07-15T07:55:53.623Z,84.76
2018-07-15T07:56:53.629Z,85.14
2018-07-15T07:57:53.631Z,85.82
2018-07-15T07:58:53.636Z,84.95
2018-07-15T07:59:53.638Z,84.76
2018-07-15T08:00:53.642Z,86.11
2018-07-15T08:01:53.715Z,85.91
2018-07-15T08:02:53.652Z,85.63
2018-07-15T08:03:53.654Z,87.26
2018-07-15T08:04:53.657Z,86.01
2018-07-15T08:05:53.661Z,85.14
2018-07-15T08:06:53.666Z,84.03
2018-07-15T08:07:53.669Z,83.84
2018-07-15T08:08:53.673Z,83.94
2018-07-15T08:09:53.678Z,81.72
2018-07-15T08:10:53.682Z,81.52
2018-07-15T08:11:53.687Z,80.99
2018-07-15T08:12:53.691Z,81.76
2018-07-15T08:13:53.696Z,80.69
2018-07-15T08:14:53.703Z,79.10
2018-07-15T08:15:53.705Z,75.47
2018-07-15T08:16:53.711Z,75.47
2018-07-15T08:17:53.718Z,75.02
2018-07-15T08:18:53.722Z,75.79
2018-07-15T08:19:53.729Z,72.58
2018-07-15T08:20:53.734Z,71.52
2018-07-15T08:21:53.742Z,70.34
2018-07-15T08:22:53.749Z,69.14
2018-07-15T08:23:53.756Z,69.17
2018-07-15T08:24:53.763Z,68.21
2018-07-15T08:25:53.770Z,66.50
2018-07-15T08:26:53.783Z,66.43
2018-07-15T08:27:53.789Z,66.72
2018-07-15T08:28:53.800Z,65.08
2018-07-15T08:29:53.806Z,65.63
2018-07-15T08:30:53.815Z,65.14
2018-07-15T08:31:53.825Z,66.88
2018-07-15T08:32:53.835Z,65.95
2018-07-15T08:33:53.843Z,62.79
2018-07-15T08:34:53.895Z,61.26
2018-07-15T08:35:53.862Z,59.06
2018-07-15T08:36:53.873Z,58.90
2018-07-15T08:37:53.883Z,57.73
2018-07-15T08:38:53.895Z,57.67
2018-07-15T08:39:53.906Z,57.21
2018-07-15T08:40:53.917Z,55.75
2018-07-15T08:41:53.928Z,56.50
2018-07-15T08:42:53.941Z,57.86
2018-07-15T08:43:53.952Z,57.83
2018-07-15T08:44:53.965Z,58.09
2018-07-15T08:45:54.007Z,59.71
2018-07-15T08:46:53.987Z,59.52
2018-07-15T08:47:53.998Z,62.82
2018-07-15T08:48:54.010Z,62.98
2018-07-15T08:49:54.021Z,61.49
2018-07-15T08:50:54.031Z,61.69
2018-07-15T08:51:54.042Z,60.33
2018-07-15T08:52:54.052Z,61.76
2018-07-15T08:53:54.061Z,62.82
2018-07-15T08:54:54.072Z,64.95
2018-07-15T08:55:54.081Z,65.50
2018-07-15T08:56:54.091Z,65.40
2018-07-15T08:57:54.100Z,66.33
2018-07-15T08:58:54.113Z,67.69
2018-07-15T08:59:54.118Z,67.30
2018-07-15T09:00:54.127Z,66.72
2018-07-15T09:01:54.136Z,68.17
2018-07-15T09:02:54.144Z,68.88
2018-07-15T09:03:54.153Z,67.27
2018-07-15T09:04:54.161Z,67.56
2018-07-15T09:05:54.170Z,64.17
2018-07-15T09:06:54.180Z,63.14
2018-07-15T09:07:54.190Z,63.04
2018-07-15T09:08:54.197Z,63.34
2018-07-15T09:09:54.208Z,62.46
2018-07-15T09:10:54.216Z,61.62
2018-07-15T09:11:54.225Z,61.14
2018-07-15T09:12:54.235Z,61.91
2018-07-15T09:13:54.252Z,63.24
2018-07-15T09:14:54.256Z,61.18
2018-07-15T09:15:54.266Z,61.43
2018-07-15T09:16:54.272Z,63.56
2018-07-15T09:17:54.282Z,62.63
2018-07-15T09:18:54.295Z,62.01
2018-07-15T09:19:54.299Z,60.10
2018-07-15T09:20:54.309Z,58.87
2018-07-15T09:21:54.332Z,55.60
2018-07-15T09:22:54.332Z,55.41
2018-07-15T09:23:54.339Z,54.94
2018-07-15T09:24:54.350Z,55.63
2018-07-15T09:25:54.361Z,54.56
2018-07-15T09:26:54.374Z,52.52
2018-07-15T09:27:54.521Z,52.15
2018-07-15T09:28:54.393Z,52.69
2018-07-15T09:29:54.404Z,55.60
2018-07-15T09:30:54.416Z,56.64
2018-07-15T09:31:54.426Z,54.70
2018-07-15T09:32:54.436Z,53.15
2018-07-15T09:33:54.447Z,52.76
2018-07-15T09:34:54.456Z,54.99
2018-07-15T09:35:54.467Z,55.18
2018-07-15T09:36:54.477Z,52.88
2018-07-15T09:37:54.488Z,54.24
2018-07-15T09:38:54.498Z,55.69
2018-07-15T09:39:54.508Z,52.50
2018-07-15T09:40:54.523Z,52.72
2018-07-15T09:41:54.530Z,49.32
2018-07-15T09:42:54.541Z,49.41
2018-07-15T09:43:54.550Z,51.09
2018-07-15T09:44:54.562Z,50.48
2018-07-15T09:45:54.573Z,51.75
2018-07-15T09:46:54.585Z,50.68
2018-07-15T09:47:54.594Z,51.93
2018-07-15T09:48:54.605Z,54.53
2018-07-15T09:49:54.616Z,55.11
2018-07-15T09:50:54.627Z,52.64
2018-07-15T09:51:54.636Z,54.58
2018-07-15T09:52:54.648Z,52.71
2018-07-15T09:53:54.656Z,54.55
2018-07-15T09:54:54.666Z,55.58
2018-07-15T09:55:54.674Z,54.64
2018-07-15T09:56:54.683Z,57.65
2018-07-15T09:57:54.694Z,56.00
2018-07-15T09:58:54.702Z,59.00
2018-07-15T09:59:54.711Z,56.77
2018-07-15T10:00:54.720Z,55.32
2018-07-15T10:01:54.729Z,57.84
2018-07-15T10:02:54.738Z,55.42
2018-07-15T10:03:54.747Z,59.49
2018-07-15T10:04:54.754Z,55.42
2018-07-15T10:05:54.763Z,54.48
2018-07-15T10:06:54.772Z,55.44
2018-07-15T10:07:54.780Z,54.58
2018-07-15T10:08:54.790Z,55.08
2018-07-15T10:09:54.797Z,54.72
2018-07-15T10:10:54.805Z,54.66
2018-07-15T10:11:54.814Z,51.67
2018-07-15T10:12:54.823Z,50.70
2018-07-15T10:13:54.833Z,51.38
2018-07-15T10:14:54.843Z,52.03
2018-07-15T10:15:54.850Z,53.85
2018-07-15T10:16:54.860Z,57.06
2018-07-15T10:17:54.870Z,57.83
2018-07-15T10:18:54.902Z,51.84
2018-07-15T10:19:54.888Z,50.87
2018-07-15T10:20:54.897Z,53.49
2018-07-15T10:21:54.907Z,50.68
2018-07-15T10:22:54.916Z,51.75
2018-07-15T10:23:54.924Z,51.45
2018-07-15T10:24:54.933Z,51.18
2018-07-15T10:25:54.942Z,55.75
2018-07-15T10:26:54.953Z,51.40
2018-07-15T10:27:54.962Z,50.85
2018-07-15T10:28:54.975Z,47.93
2018-07-15T10:29:54.984Z,47.64
2018-07-15T10:30:54.994Z,46.20
2018-07-15T10:31:55.007Z,46.11
2018-07-15T10:32:55.016Z,44.96
2018-07-15T10:33:55.025Z,44.98
2018-07-15T10:34:55.037Z,46.15
2018-07-15T10:35:55.046Z,43.89
2018-07-15T10:36:55.060Z,42.43
2018-07-15T10:37:55.071Z,45.94
2018-07-15T10:38:55.147Z,42.70
2018-07-15T10:39:55.146Z,44.35
2018-07-15T10:40:55.104Z,46.71
2018-07-15T10:41:55.117Z,47.10
2018-07-15T10:42:55.127Z,49.54
2018-07-15T10:43:55.139Z,48.15
2018-07-15T10:44:55.151Z,48.44
2018-07-15T10:45:55.162Z,48.36
2018-07-15T10:46:55.174Z,49.73
2018-07-15T10:47:55.185Z,48.39
2018-07-15T10:48:55.197Z,49.44
2018-07-15T10:49:55.209Z,48.17
2018-07-15T10:50:55.222Z,47.61
2018-07-15T10:51:55.232Z,47.13
2018-07-15T10:52:55.308Z,46.34
2018-07-15T10:53:55.256Z,46.73
2018-07-15T10:54:55.268Z,47.03
2018-07-15T10:55:55.281Z,47.03
2018-07-15T10:56:55.294Z,47.03
2018-07-15T10:57:55.305Z,47.32
2018-07-15T10:58:55.317Z,45.67
2018-07-15T10:59:55.329Z,46.81
2018-07-15T11:00:55.350Z,44.84
2018-07-15T11:01:55.354Z,45.57
2018-07-15T11:02:55.365Z,48.20
2018-07-15T11:03:55.377Z,50.34
2018-07-15T11:04:55.388Z,51.89
2018-07-15T11:05:55.399Z,49.19
2018-07-15T11:06:55.411Z,49.19
2018-07-15T11:07:55.422Z,46.37
2018-07-15T11:08:55.435Z,46.88
2018-07-15T11:09:55.443Z,45.81
2018-07-15T11:10:55.461Z,44.35
2018-07-15T11:11:55.465Z,45.91
2018-07-15T11:12:55.475Z,45.72
2018-07-15T11:13:55.486Z,47.27
2018-07-15T11:14:55.498Z,47.66
2018-07-15T11:15:55.507Z,47.86
2018-07-15T11:16:55.545Z,46.37
2018-07-15T11:17:55.528Z,47.64
2018-07-15T11:18:55.538Z,47.34
2018-07-15T11:19:55.549Z,47.76
2018-07-15T11:20:55.557Z,45.32
2018-07-15T11:21:55.570Z,47.86
2018-07-15T11:22:55.580Z,47.66
2018-07-15T11:23:55.590Z,46.50
2018-07-15T11:24:55.600Z,45.81
2018-07-15T11:25:55.611Z,44.67
2018-07-15T11:26:55.622Z,44.30
2018-07-15T11:27:55.632Z,45.57
2018-07-15T11:28:55.643Z,44.40
2018-07-15T11:29:55.654Z,45.76
2018-07-15T11:30:55.738Z,47.69
2018-07-15T11:31:55.674Z,46.98
2018-07-15T11:32:55.684Z,49.68
2018-07-15T11:33:55.706Z,50.24
2018-07-15T11:34:55.705Z,48.47
2018-07-15T11:35:55.718Z,50.29
2018-07-15T11:36:55.726Z,51.23
2018-07-15T11:37:55.734Z,49.85
2018-07-15T11:38:55.791Z,53.05
2018-07-15T11:39:55.753Z,51.59
2018-07-15T11:40:55.762Z,53.92
2018-07-15T11:41:55.773Z,53.34
2018-07-15T11:42:55.781Z,54.41
2018-07-15T11:43:55.788Z,52.18
2018-07-15T11:44:55.798Z,52.08
2018-07-15T11:45:55.805Z,51.76
2018-07-15T11:46:55.813Z,51.74
2018-07-15T11:47:55.821Z,51.64
2018-07-15T11:48:55.831Z,52.22
2018-07-15T11:49:55.838Z,51.74
2018-07-15T11:50:55.850Z,53.67
2018-07-15T11:51:55.857Z,52.71
2018-07-15T11:52:55.862Z,52.51
2018-07-15T11:53:55.869Z,53.67
2018-07-15T11:54:55.878Z,54.16
2018-07-15T11:55:55.885Z,58.42
2018-07-15T11:56:55.892Z,58.23
2018-07-15T11:57:55.900Z,58.26
2018-07-15T11:58:55.913Z,58.45
2018-07-15T11:59:55.914Z,59.45
2018-07-15T12:00:55.921Z,61.29
2018-07-15T12:01:55.945Z,57.73
2018-07-15T12:02:55.937Z,53.27
2018-07-15T12:03:55.943Z,52.11
2018-07-15T12:04:55.952Z,52.69
2018-07-15T12:05:55.960Z,50.94
2018-07-15T12:06:55.968Z,53.30
2018-07-15T12:07:55.976Z,56.30
2018-07-15T12:08:55.984Z,55.07
2018-07-15T12:09:55.993Z,51.01
2018-07-15T12:10:56.050Z,53.64
2018-07-15T12:11:56.010Z,51.14
2018-07-15T12:12:56.020Z,52.31
2018-07-15T12:13:56.028Z,57.20
2018-07-15T12:14:56.037Z,53.20
2018-07-15T12:15:56.049Z,53.59
2018-07-15T12:16:56.053Z,51.94
2018-07-15T12:17:56.066Z,52.82
2018-07-15T12:18:56.073Z,55.44
2018-07-15T12:19:56.082Z,50.31
2018-07-15T12:20:56.091Z,52.06
2018-07-15T12:21:56.100Z,54.82
2018-07-15T12:22:56.110Z,50.43
2018-07-15T12:23:56.118Z,48.12
2018-07-15T12:24:56.128Z,47.95
2018-07-15T12:25:56.138Z,51.04
2018-07-15T12:26:56.149Z,52.50
2018-07-15T12:27:56.158Z,50.65
2018-07-15T12:28:56.169Z,51.82
2018-07-15T12:29:56.180Z,49.97
2018-07-15T12:30:56.188Z,50.63
2018-07-15T12:31:56.199Z,50.31
2018-07-15T12:32:56.209Z,50.14
2018-07-15T12:33:56.217Z,50.73
2018-07-15T12:34:56.229Z,50.43
2018-07-15T12:35:56.238Z,52.80
2018-07-15T12:36:56.249Z,51.92
2018-07-15T12:37:56.259Z,48.02
2018-07-15T12:38:56.269Z,48.83
2018-07-15T12:39:56.280Z,46.30
2018-07-15T12:40:56.291Z,51.75
2018-07-15T12:41:56.300Z,50.36
2018-07-15T12:42:56.312Z,52.22
2018-07-15T12:43:56.322Z,50.36
2018-07-15T12:44:56.331Z,50.26
2018-07-15T12:45:56.342Z,51.34
2018-07-15T12:46:56.352Z,49.07
2018-07-15T12:47:56.361Z,47.13
2018-07-15T12:48:56.372Z,48.07
2018-07-15T12:49:56.384Z,49.54
2018-07-15T12:50:56.394Z,49.51
2018-07-15T12:51:56.404Z,48.83
2018-07-15T12:52:56.413Z,51.19